createdAt,value
2023-02-14T00:24:30.201Z,3.39
2023-02-14T00:54:34.732Z,3.07
2023-02-14T01:24:38.827Z,2.71
2023-02-14T01:54:46.221Z,2.55
2023-02-14T02:24:54.656Z,2.50
2023-02-14T02:55:01.571Z,2.05
2023-02-14T03:25:12.987Z,2.00
2023-02-14T03:55:21.485Z,1.72
2023-02-14T04:25:25.545Z,1.66
2023-02-14T04:55:30.075Z,1.66
2023-02-14T05:25:34.452Z,1.45
2023-02-14T05:55:38.397Z,1.16
2023-02-14T06:25:43.265Z,1.00
2023-02-14T06:55:47.876Z,1.02
2023-02-14T07:25:52.038Z,1.63
2023-02-14T07:55:56.304Z,1.85
2023-02-14T08:26:00.481Z,2.10
2023-02-14T08:56:05.515Z,2.59
2023-02-14T09:26:14.279Z,2.73
2023-02-14T09:56:23.576Z,3.00
2023-02-14T10:26:33.202Z,3.33
2023-02-14T10:56:39.780Z,3.21
2023-02-14T11:26:49.041Z,3.50
2023-02-14T11:56:56.947Z,3.59
2023-02-14T12:27:12.021Z,4.09
2023-02-14T12:57:28.542Z,4.11
2023-02-14T13:27:34.494Z,4.57
2023-02-14T13:57:41.386Z,4.38
2023-02-14T14:27:47.008Z,4.36
2023-02-14T14:57:54.004Z,4.26
2023-02-14T15:27:58.786Z,4.00
2023-02-14T15:58:04.635Z,3.92
2023-02-14T16:28:09.185Z,3.63
2023-02-14T16:58:15.218Z,3.34
2023-02-14T17:28:19.496Z,2.96
2023-02-14T17:58:25.491Z,2.82
2023-02-14T18:28:30.220Z,2.73
2023-02-14T18:58:37.658Z,2.80
2023-02-14T19:28:46.428Z,2.81
2023-02-14T19:58:52.173Z,2.54
2023-02-14T20:29:01.289Z,2.41
2023-02-14T20:59:10.978Z,2.33
2023-02-14T21:29:15.219Z,2.27
2023-02-14T21:59:19.590Z,2.08
2023-02-14T22:29:23.773Z,1.65
2023-02-14T22:59:28.414Z,1.72
2023-02-14T23:29:32.805Z,1.44
2023-02-14T23:59:36.926Z,1.20
